Latest Weather Observations for Mount Isa

IDQ60801

Issued at 3:02 pm EST Sunday 23 September 2018 (issued every 10 minutes, with the page automatically refreshed every 10 minutes)

About weather observations | Map of weather stations | Latest weather observations for QLD | Other Formats
Station Details ID: 029127 Name: MOUNT ISA AERO Lat: -20.68 Lon: 139.49 Height: 340.3 m
Data from the previous 72 hours. | See also: Recent months at Mount Isa
Date/Time
EST
Temp
°C
App
Temp
°C
Dew
Point
°C
Rel
Hum
%
Delta-T
°C
Wind Press
QNH
hPa
Press
MSL
hPa
Rain since
9am
mm
Dir  Spd
km/h
Gust
km/h
Spd
kts
Gust
kts
23/03:00pm 30.9 25.7 3.8 18 14.1 ESE 20 30 11 16 1017.5 1016.0 0.0
23/02:30pm 30.4 25.6 4.9 20 13.5 SE 19 30 10 16 1018.0 1016.5 0.0
23/02:00pm 30.6 25.3 5.1 20 13.5 SE 22 32 12 17 1018.4 1016.9 0.0
23/01:30pm 30.7 26.0 5.2 20 13.6 SE 19 33 10 18 1018.8 1017.3 0.0
23/01:00pm 30.3 25.1 5.6 21 13.2 E 22 33 12 18 1019.3 1017.8 0.0
23/12:30pm 30.4 25.0 6.3 22 13.0 E 24 35 13 19 1019.9 1018.4 0.0
23/12:00pm 29.7 24.5 5.7 22 12.8 ENE 22 33 12 18 1020.5 1019.1 0.0
23/11:30am 30.1 25.2 6.7 23 12.7 ENE 22 35 12 19 1021.0 1019.5 0.0
23/11:00am 28.5 22.6 6.0 24 12.0 E 26 39 14 21 1021.4 1019.9 0.0
23/10:30am 27.8 21.9 6.0 25 11.6 ENE 26 35 14 19 1021.7 1020.2 0.0
23/10:00am 27.9 22.2 6.6 26 11.4 ENE 26 35 14 19 1021.8 1020.3 0.0
23/09:30am 26.6 21.9 6.1 27 10.8 E 20 30 11 16 1021.9 1020.4 0.0
23/09:00am 26.0 21.1 5.0 26 10.8 E 20 30 11 16 1021.8 1020.3 0.0
23/08:30am 24.9 19.9 4.6 27 10.3 E 20 30 11 16 1021.7 1020.2 0.0
23/08:00am 23.6 19.7 3.5 27 9.9 ESE 13 17 7 9 1021.4 1019.9 0.0
23/07:30am 21.4 17.6 4.0 32 8.6 ESE 13 17 7 9 1021.1 1019.6 0.0
23/07:00am 16.4 12.5 1.3 36 6.7 SE 11 15 6 8 1020.7 1019.3 0.0
23/06:30am 18.7 15.3 2.1 33 7.7 SE 9 13 5 7 1020.4 1018.9 0.0
23/06:00am 18.6 15.2 1.6 32 7.8 ESE 9 13 5 7 1020.1 1018.6 0.0
23/05:30am 19.6 15.7 1.1 29 8.5 ESE 11 15 6 8 1019.9 1018.4 0.0
23/05:00am 19.8 14.6 0.3 27 8.8 ESE 17 26 9 14 1019.7 1018.2 0.0
23/04:30am 18.4 16.1 0.1 29 8.1 N 2 7 1 4 1019.5 1018.0 0.0
23/04:00am 15.4 13.0 -3.0 28 7.4 CALM 0 0 0 0 1019.4 1017.9 0.0
23/03:30am 15.4 12.5 -4.5 25 7.8 SSW 2 7 1 4 1019.3 1017.8 0.0
23/03:00am 16.1 13.1 -5.6 22 8.4 SW 2 7 1 4 1019.4 1017.9 0.0
23/02:30am 19.1 14.8 -5.0 19 9.7 SSW 9 11 5 6 1019.5 1018.0 0.0
23/02:00am 20.9 16.2 -5.0 17 10.6 S 11 15 6 8 1019.6 1018.1 0.0
23/01:30am 21.2 16.0 -6.4 15 11.1 S 13 17 7 9 1019.7 1018.2 0.0
23/01:00am 21.5 16.7 -6.2 15 11.1 S 11 15 6 8 1020.1 1018.6 0.0
23/12:30am 21.6 16.6 -8.0 13 11.5 S 11 13 6 7 1020.3 1018.8 0.0
23/12:00am 22.0 17.4 -7.6 13 11.6 S 9 11 5 6 1020.5 1019.1 0.0
 
Date/Time
EST
Temp
°C
App
Temp
°C
Dew
Point
°C
Rel
Hum
%
Delta-T
°C
Wind Press
QNH
hPa
Press
MSL
hPa
Rain since
9am
mm
Dir  Spd
km/h
Gust
km/h
Spd
kts
Gust
kts
22/11:30pm 22.4 17.0 -8.4 12 12.0 S 13 15 7 8 1020.4 1018.9 0.0
22/11:00pm 23.2 17.5 -7.7 12 12.3 S 15 17 8 9 1020.3 1018.8 0.0
22/10:30pm 23.5 18.2 -7.5 12 12.4 S 13 15 7 8 1020.4 1018.9 0.0
22/10:00pm 22.7 17.4 -7.1 13 11.9 SSE 13 15 7 8 1020.3 1018.8 0.0
22/09:30pm 24.0 18.4 -6.1 13 12.5 SSE 15 17 8 9 1020.0 1018.5 0.0
22/09:00pm 25.7 20.5 -5.8 12 13.3 SSE 13 17 7 9 1019.7 1018.2 0.0
22/08:30pm 24.8 20.3 -3.6 15 12.4 S 11 13 6 7 1019.4 1017.9 0.0
22/08:00pm 24.8 20.7 -2.7 16 12.2 SE 9 11 5 6 1019.0 1017.5 0.0
22/07:30pm 26.9 22.5 -2.8 14 13.4 SE 11 15 6 8 1018.5 1017.0 0.0
22/07:00pm 28.1 23.6 -2.9 13 14.1 SE 11 17 6 9 1018.2 1016.7 0.0
22/06:30pm 29.6 24.4 -2.8 12 14.9 SE 15 22 8 12 1017.9 1016.3 0.0
22/06:00pm 30.9 25.7 -3.0 11 15.7 SE 15 20 8 11 1017.5 1016.0 0.0
22/05:30pm 31.8 26.3 -2.3 11 16.1 SE 17 24 9 13 1017.2 1015.7 0.0
22/05:00pm 32.2 26.6 -3.2 10 16.5 SE 17 26 9 14 1017.0 1015.5 0.0
22/04:30pm 32.5 27.1 -1.7 11 16.4 SE 17 28 9 15 1017.0 1015.5 0.0
22/04:00pm 32.2 26.7 -2.0 11 16.3 SE 17 26 9 14 1017.1 1015.6 0.0
22/03:30pm 31.9 25.8 -2.2 11 16.1 E 20 33 11 18 1017.5 1016.0 0.0
22/03:00pm 32.1 27.4 -2.0 11 16.2 SSW 13 30 7 16 1017.9 1016.3 0.0
22/02:30pm 32.0 26.9 -2.1 11 16.2 S 15 24 8 13 1018.4 1016.9 0.0
22/02:00pm 31.7 27.5 -1.2 12 15.8 SSE 11 26 6 14 1018.8 1017.3 0.0
22/01:30pm 31.6 27.5 -0.1 13 15.5 SE 11 24 6 13 1019.1 1017.6 0.0
22/01:00pm 31.1 26.6 -0.5 13 15.3 SE 13 24 7 13 1019.8 1018.3 0.0
22/12:30pm 31.6 25.8 -0.1 13 15.5 ENE 20 32 11 17 1020.2 1018.7 0.0
22/12:00pm 30.8 25.5 -0.8 13 15.2 ENE 17 26 9 14 1020.7 1019.3 0.0
22/11:30am 31.0 25.4 -2.9 11 15.8 ESE 17 30 9 16 1021.2 1019.7 0.0
22/11:00am 30.3 23.7 -3.4 11 15.4 ESE 22 32 12 17 1021.6 1020.1 0.0
22/10:30am 29.2 22.4 -5.5 10 15.2 ESE 22 30 12 16 1021.9 1020.4 0.0
22/10:00am 28.7 22.4 -5.9 10 14.9 ESE 19 28 10 15 1021.7 1020.2 0.0
22/09:30am 27.2 20.8 -7.0 10 14.3 SE 19 28 10 15 1021.8 1020.3 0.0
22/09:00am 26.1 20.7 -7.9 10 13.8 SE 13 19 7 10 1022.0 1020.5 0.0
22/08:30am 24.1 18.0 -8.2 11 12.9 SE 17 24 9 13 1021.8 1020.3 0.0
22/08:00am 20.8 17.9 -8.6 13 11.2 CALM 0 0 0 0 1021.6 1020.1 0.0
22/07:30am 17.7 13.6 -9.2 15 9.8 NNE 6 7 3 4 1021.4 1019.9 0.0
22/07:00am 15.8 10.6 -10.7 15 9.1 S 11 11 6 6 1021.2 1019.7 0.0
22/06:30am 17.5 13.3 -10.3 14 9.9 SSE 6 7 3 4 1021.1 1019.6 0.0
22/06:00am 18.0 13.6 -10.8 13 10.1 SSE 7 9 4 5 1020.6 1019.2 0.0
22/05:30am 18.0 14.6 -9.9 14 10.1 S 2 7 1 4 1020.4 1018.9 0.0
22/05:00am 17.3 14.2 -10.4 14 9.8 CALM 0 7 0 4 1020.3 1018.8 0.0
22/04:30am 17.2 11.6 -10.5 14 9.8 SSE 13 15 7 8 1019.9 1018.4 0.0
22/04:00am 17.7 11.8 -10.1 14 9.9 S 15 15 8 8 1020.2 1018.7 0.0
22/03:30am 17.5 11.6 -10.3 14 9.9 S 15 17 8 9 1020.2 1018.7 0.0
22/03:00am 17.9 12.4 -9.9 14 10.0 S 13 15 7 8 1020.3 1018.8 0.0
22/02:30am 18.7 12.4 -10.2 13 10.4 S 17 19 9 10 1020.5 1019.1 0.0
22/02:00am 19.8 13.2 -9.4 13 10.8 S 19 20 10 11 1020.7 1019.3 0.0
22/01:30am 19.4 13.6 -8.7 14 10.5 SSW 15 17 8 9 1021.1 1019.6 0.0
22/01:00am 18.2 13.8 -9.7 14 10.1 WNW 7 9 4 5 1021.3 1019.8 0.0
22/12:30am 21.5 16.0 -9.1 12 11.7 SSE 13 19 7 10 1021.1 1019.6 0.0
22/12:00am 22.1 15.4 -8.6 12 11.8 SSE 20 30 11 16 1021.0 1019.5 0.0
 
Date/Time
EST
Temp
°C
App
Temp
°C
Dew
Point
°C
Rel
Hum
%
Delta-T
°C
Wind Press
QNH
hPa
Press
MSL
hPa
Rain since
9am
mm
Dir  Spd
km/h
Gust
km/h
Spd
kts
Gust
kts
21/11:30pm 22.6 15.0 -9.3 11 12.2 SSE 24 32 13 17 1021.0 1019.5 0.0
21/11:00pm 22.6 16.4 -9.3 11 12.2 SSE 17 26 9 14 1021.1 1019.6 0.0
21/10:30pm 22.7 16.9 -8.1 12 12.1 S 15 17 8 9 1021.1 1019.6 0.0
21/10:00pm 22.6 16.5 -8.2 12 12.0 S 17 17 9 9 1021.2 1019.7 0.0
21/09:30pm 23.1 17.3 -8.9 11 12.4 S 15 19 8 10 1021.1 1019.6 0.0
21/09:00pm 24.2 18.4 -8.1 11 12.9 SSE 15 19 8 10 1020.9 1019.4 0.0
21/08:30pm 24.6 18.8 -9.0 10 13.2 SSE 15 19 8 10 1020.5 1019.1 0.0
21/08:00pm 24.7 19.6 -8.9 10 13.2 S 11 13 6 7 1020.2 1018.7 0.0
21/07:30pm 25.6 19.8 -8.2 10 13.7 SSE 15 17 8 9 1019.8 1018.3 0.0
21/07:00pm 24.9 19.8 -8.8 10 13.3 SE 11 13 6 7 1019.2 1017.7 0.0
21/06:30pm 26.5 21.1 -8.9 9 14.2 ESE 13 19 7 10 1018.7 1017.2 0.0
21/06:00pm 28.2 22.0 -9.1 8 15.2 SE 17 26 9 14 1018.3 1016.8 0.0
21/05:30pm 29.1 23.3 -8.5 8 15.6 SE 15 22 8 12 1018.1 1016.6 0.0
21/05:00pm 29.3 23.5 -8.3 8 15.7 SE 15 24 8 13 1018.0 1016.5 0.0
21/04:30pm 29.5 23.7 -8.2 8 15.8 ESE 15 22 8 12 1017.8 1016.2 0.0
21/04:00pm 29.8 23.7 -8.0 8 15.9 SSE 17 26 9 14 1017.5 1016.0 0.0
21/03:30pm 29.2 22.5 -8.4 8 15.7 S 20 30 11 16 1017.5 1016.0 0.0
21/03:00pm 29.8 23.7 -8.0 8 15.9 SSE 17 28 9 15 1017.6 1016.1 0.0
21/02:30pm 29.4 22.7 -8.2 8 15.7 ESE 20 30 11 16 1018.0 1016.5 0.0
21/02:00pm 29.1 22.6 -8.5 8 15.6 ESE 19 32 10 17 1018.3 1016.8 0.0
21/01:30pm 28.4 20.6 -7.5 9 15.1 E 26 37 14 20 1018.9 1017.4 0.0
21/01:00pm 28.2 20.8 -7.6 9 14.9 ESE 24 37 13 20 1019.4 1017.9 0.0
21/12:30pm 27.7 20.2 -8.0 9 14.8 ESE 24 37 13 20 1020.0 1018.5 0.0
21/12:00pm 27.0 19.2 -7.2 10 14.2 ESE 26 37 14 20 1020.6 1019.2 0.0
21/11:30am 26.6 18.6 -6.2 11 13.9 ESE 28 37 15 20 1020.9 1019.4 0.0
21/11:00am 25.6 17.1 -7.0 11 13.4 ESE 30 41 16 22 1021.4 1019.9 0.0
21/10:30am 24.9 17.2 -6.4 12 13.0 E 26 41 14 22 1021.7 1020.2 0.0
21/10:00am 24.3 16.6 -6.9 12 12.7 ESE 26 33 14 18 1022.0 1020.5 0.0
21/09:30am 23.0 14.9 -6.9 13 12.1 ESE 28 35 15 19 1021.8 1020.3 0.0
21/09:00am 22.5 14.0 -7.3 13 11.8 ESE 30 39 16 21 1021.6 1020.1 0.0
21/08:30am 20.6 13.5 -7.8 14 11.0 ESE 22 33 12 18 1021.5 1020.0 0.0
21/08:00am 19.8 13.6 -8.4 14 10.7 SE 17 26 9 14 1021.1 1019.6 0.0
21/07:30am 18.8 12.7 -8.3 15 10.2 SE 17 28 9 15 1020.5 1019.1 0.0
21/07:00am 18.4 11.8 -8.7 15 10.0 SE 19 30 10 16 1020.2 1018.7 0.0
21/06:30am 18.3 10.9 -7.9 16 9.9 SE 24 33 13 18 1019.8 1018.3 0.0
21/06:00am 18.4 11.6 -8.7 15 10.0 SSE 20 32 11 17 1019.5 1018.0 0.0
21/05:30am 18.5 12.7 -8.6 15 10.1 SSE 15 24 8 13 1019.1 1017.6 0.0
21/05:00am 18.9 12.8 -8.3 15 10.2 SE 17 26 9 14 1019.0 1017.5 0.0
21/04:30am 19.2 12.4 -8.9 14 10.5 SE 20 30 11 16 1018.7 1017.2 0.0
21/04:00am 19.7 13.8 -9.5 13 10.8 SE 15 26 8 14 1018.7 1017.2 0.0
21/03:30am 19.7 11.4 -9.5 13 10.8 SSE 28 37 15 20 1018.4 1016.9 0.0
21/03:00am 20.3 12.0 -9.0 13 11.0 SSE 28 33 15 18 1018.5 1017.0 0.0
21/02:30am 20.0 12.8 -9.2 13 10.9 S 22 30 12 16 1018.6 1017.1 0.0
21/02:00am 20.2 13.4 -9.1 13 11.0 SSE 20 30 11 16 1018.7 1017.2 0.0
21/01:30am 20.0 13.4 -9.2 13 10.9 SSE 19 22 10 12 1018.9 1017.4 0.0
21/01:00am 20.0 13.5 -8.3 14 10.7 S 19 22 10 12 1019.1 1017.6 0.0
21/12:30am 20.2 14.1 -8.1 14 10.8 S 17 19 9 10 1019.2 1017.7 0.0
21/12:00am 20.1 14.7 -8.2 14 10.8 S 13 15 7 8 1019.3 1017.8 0.0
 
Date/Time
EST
Temp
°C
App
Temp
°C
Dew
Point
°C
Rel
Hum
%
Delta-T
°C
Wind Press
QNH
hPa
Press
MSL
hPa
Rain since
9am
mm
Dir  Spd
km/h
Gust
km/h
Spd
kts
Gust
kts
20/11:30pm 20.6 14.9 -7.8 14 11.0 S 15 17 8 9 1019.2 1017.7 0.0
20/11:00pm 21.0 16.1 -7.5 14 11.1 SSE 11 15 6 8 1019.5 1018.0 0.0
20/10:30pm 21.4 15.7 -7.2 14 11.3 S 15 19 8 10 1019.7 1018.2 0.0
20/10:00pm 22.1 16.5 -6.6 14 11.5 SSE 15 19 8 10 1019.8 1018.3 0.0
20/09:30pm 21.8 16.9 -6.8 14 11.4 S 11 15 6 8 1019.7 1018.2 0.0
20/09:00pm 22.7 17.4 -7.1 13 11.9 SSE 13 17 7 9 1019.4 1017.9 0.0
20/08:30pm 23.4 17.8 -6.5 13 12.2 SSE 15 19 8 10 1019.1 1017.6 0.0
20/08:00pm 22.9 17.6 -6.9 13 12.0 SSE 13 15 7 8 1018.7 1017.2 0.0
20/07:30pm 23.9 19.0 -7.2 12 12.6 SE 11 15 6 8 1018.3 1016.8 0.0
20/07:00pm 24.7 19.5 -6.6 12 12.9 SE 13 17 7 9 1017.9 1016.3 0.0
20/06:30pm 26.0 19.6 -6.7 11 13.6 SE 19 28 10 15 1017.3 1015.8 0.0
20/06:00pm 27.1 20.6 -5.9 11 14.1 SE 20 28 11 15 1016.8 1015.3 0.0
20/05:30pm 27.9 20.6 -6.5 10 14.6 SSE 24 30 13 16 1016.6 1015.1 0.0
20/05:00pm 28.8 21.9 -5.8 10 15.0 SE 22 30 12 16 1016.3 1014.8 0.0
20/04:30pm 28.9 22.4 -5.7 10 15.1 SE 20 32 11 17 1016.2 1014.7 0.0
20/04:00pm 29.4 23.1 -5.4 10 15.3 SE 19 28 10 15 1016.3 1014.8 0.0
20/03:30pm 29.1 22.8 -5.6 10 15.2 SE 19 30 10 16 1016.3 1014.8 0.0

Other Formats:

Comma delimited format used in spreadsheet applications
http://www.bom.gov.au/fwo/IDQ60801/IDQ60801.94332.axf

JavaScript Object Notation format (JSON) in row-major order
http://www.bom.gov.au/fwo/IDQ60801/IDQ60801.94332.json